Time;durP1;ratioP1;P1;durP2;ratioP2;P2;SDS_P1;SDS_P2;PMS_P1;PMS_P2;Temp;Humidity;BMP_temperature;BMP_pressure;BME280_temperature;BME280_humidity;BME280_pressure;Samples;Min_cycle;Max_cycle;Signal;HPM_P1;HPM_P2
2022/06/21 00:00:43;;;;;;;3.15;1.48;;;25.60;96.70;;;;;;4972053;28;20047;-81
2022/06/21 00:03:15;;;;;;;3.60;1.60;;;25.60;96.70;;;;;;4940098;28;20043;-78
2022/06/21 00:05:46;;;;;;;3.63;1.95;;;25.70;96.70;;;;;;4952798;28;20051;-78
2022/06/21 00:08:17;;;;;;;3.70;1.70;;;25.70;96.70;;;;;;4954038;28;21211;-78
2022/06/21 00:10:47;;;;;;;2.35;1.42;;;25.70;96.70;;;;;;4954151;28;20058;-79
2022/06/21 00:13:18;;;;;;;3.00;1.48;;;25.70;96.70;;;;;;4953096;28;20608;-79
2022/06/21 00:15:52;;;;;;;2.75;1.60;;;25.60;96.70;;;;;;4967895;28;20046;-79
2022/06/21 00:18:24;;;;;;;6.40;2.03;;;25.50;96.70;;;;;;4965472;28;20490;-79
2022/06/21 00:20:52;;;;;;;4.65;1.52;;;25.40;96.70;;;;;;4956259;28;20054;-79
2022/06/21 00:23:25;;;;;;;2.55;1.52;;;25.30;96.70;;;;;;4953720;28;20055;-80
2022/06/21 00:25:53;;;;;;;5.43;1.80;;;25.40;96.70;;;;;;4969764;28;20065;-80
2022/06/21 00:28:22;;;;;;;2.15;1.50;;;25.40;96.70;;;;;;4949269;28;20050;-80
2022/06/21 00:30:52;;;;;;;4.47;2.00;;;25.30;96.70;;;;;;4953547;28;20058;-80
2022/06/21 00:33:23;;;;;;;3.10;1.92;;;25.30;96.70;;;;;;4954774;28;20058;-80
2022/06/21 00:35:54;;;;;;;3.50;1.92;;;25.20;96.70;;;;;;4942757;28;20047;-80
2022/06/21 00:38:30;;;;;;;4.07;1.63;;;25.10;96.70;;;;;;4967590;28;20471;-80
2022/06/21 00:41:02;;;;;;;3.17;1.90;;;25.10;96.70;;;;;;4966615;28;20098;-80
2022/06/21 00:43:35;;;;;;;3.88;1.50;;;25.10;96.70;;;;;;4950021;28;20054;-80
2022/06/21 00:46:17;;;;;;;1.55;1.20;;;25.20;96.70;;;;;;4957208;28;20069;-80
2022/06/21 00:48:47;;;;;;;2.95;1.60;;;25.40;96.70;;;;;;4970645;28;20101;-80
2022/06/21 00:51:19;;;;;;;1.92;1.45;;;25.40;96.70;;;;;;4966836;28;20066;-80
2022/06/21 00:53:54;;;;;;;2.85;1.40;;;25.40;96.70;;;;;;4966399;28;20039;-80
2022/06/21 00:56:25;;;;;;;2.63;1.52;;;25.30;96.70;;;;;;4967519;28;20043;-80
2022/06/21 00:58:53;;;;;;;2.85;1.60;;;25.20;96.70;;;;;;4970098;28;20039;-80
2022/06/21 01:01:24;;;;;;;1.65;1.40;;;25.30;96.70;;;;;;4972832;28;20043;-79
2022/06/21 01:03:55;;;;;;;2.90;1.58;;;25.20;96.70;;;;;;4977776;28;20042;-79
2022/06/21 01:06:27;;;;;;;1.83;1.60;;;25.00;96.70;;;;;;4954199;28;20499;-79
2022/06/21 01:09:01;;;;;;;2.38;1.60;;;25.10;96.70;;;;;;4967939;28;20125;-79
2022/06/21 01:11:38;;;;;;;3.25;1.55;;;25.10;96.70;;;;;;4953446;28;20051;-79
2022/06/21 01:14:08;;;;;;;3.28;1.77;;;25.00;96.70;;;;;;4967698;28;20136;-79
2022/06/21 01:16:37;;;;;;;2.22;1.50;;;24.90;96.70;;;;;;4963581;28;20113;-79
2022/06/21 01:19:12;;;;;;;3.47;1.50;;;24.90;96.70;;;;;;4966758;28;20047;-80
2022/06/21 01:21:45;;;;;;;3.30;1.70;;;24.90;96.70;;;;;;4964557;28;20082;-80
2022/06/21 01:24:22;;;;;;;2.75;1.55;;;25.00;96.70;;;;;;4968249;28;20046;-80
2022/06/21 01:26:53;;;;;;;;;;;24.90;96.70;;;;;;4965159;28;20061;-79
2022/06/21 01:29:25;;;;;;;2.40;1.48;;;24.70;96.70;;;;;;4946351;28;19932;-80
2022/06/21 01:31:55;;;;;;;2.97;1.58;;;24.70;96.70;;;;;;4946737;28;20047;-79
2022/06/21 01:34:26;;;;;;;4.22;1.60;;;24.60;96.70;;;;;;4932102;28;20046;-79
2022/06/21 01:37:00;;;;;;;3.95;1.63;;;24.40;96.70;;;;;;4954447;28;20141;-80
2022/06/21 01:39:33;;;;;;;3.83;1.75;;;24.30;96.70;;;;;;4946655;28;20078;-80
2022/06/21 01:42:06;;;;;;;4.95;1.60;;;24.30;96.70;;;;;;4960461;28;20047;-79
2022/06/21 01:44:39;;;;;;;2.42;1.63;;;24.40;96.70;;;;;;4942974;28;20145;-80
2022/06/21 01:47:12;;;;;;;2.17;1.52;;;24.50;96.70;;;;;;4946692;28;20043;-79
2022/06/21 01:49:46;;;;;;;1.70;1.60;;;24.50;96.70;;;;;;4948719;28;20397;-79
2022/06/21 01:52:17;;;;;;;3.13;1.63;;;24.50;96.70;;;;;;4966989;28;20054;-79
2022/06/21 01:54:51;;;;;;;2.65;1.48;;;24.50;96.70;;;;;;4947971;28;20047;-79
2022/06/21 01:57:21;;;;;;;3.20;2.03;;;24.50;96.70;;;;;;4943215;28;20047;-79
2022/06/21 01:59:51;;;;;;;3.78;1.60;;;24.60;96.70;;;;;;4953880;28;20038;-80
2022/06/21 02:02:23;;;;;;;3.45;1.42;;;24.60;96.70;;;;;;4964077;28;20055;-79
2022/06/21 02:04:58;;;;;;;3.40;1.65;;;24.50;96.70;;;;;;4961375;28;20047;-79
2022/06/21 02:07:31;;;;;;;2.67;1.63;;;24.50;96.70;;;;;;4948020;28;20055;-79
2022/06/21 02:10:08;;;;;;;2.03;1.52;;;24.50;96.70;;;;;;4969273;28;20457;-79
2022/06/21 02:12:41;;;;;;;4.65;1.80;;;24.60;96.70;;;;;;4965031;28;20541;-79
2022/06/21 02:15:19;;;;;;;4.03;1.90;;;24.60;96.70;;;;;;4955292;28;20051;-80
2022/06/21 02:17:48;;;;;;;3.83;1.80;;;24.50;96.70;;;;;;4962064;28;20071;-79
2022/06/21 02:20:21;;;;;;;3.45;2.00;;;24.50;96.70;;;;;;4947011;28;21574;-79
2022/06/21 02:22:49;;;;;;;3.00;1.77;;;24.50;96.70;;;;;;4947620;28;20075;-79
2022/06/21 02:25:20;;;;;;;4.43;1.83;;;24.50;96.70;;;;;;4965774;28;20074;-79
2022/06/21 02:27:52;;;;;;;5.32;1.70;;;24.50;96.70;;;;;;4976574;28;20056;-79
2022/06/21 02:30:22;;;;;;;3.85;2.00;;;24.50;96.70;;;;;;4969696;28;20050;-79
2022/06/21 02:32:53;;;;;;;3.28;1.73;;;24.40;96.70;;;;;;4976855;28;20048;-79
2022/06/21 02:35:25;;;;;;;5.20;1.75;;;24.40;96.70;;;;;;4956909;28;20076;-79
2022/06/21 02:37:55;;;;;;;2.97;2.10;;;24.20;96.70;;;;;;4954725;28;20152;-79
2022/06/21 02:40:27;;;;;;;3.05;1.88;;;24.20;96.70;;;;;;4969794;28;20043;-79
2022/06/21 02:43:01;;;;;;;3.75;1.50;;;24.20;96.70;;;;;;4975470;28;20123;-80
2022/06/21 02:45:33;;;;;;;3.38;1.73;;;24.20;96.70;;;;;;4958707;28;20069;-79
2022/06/21 02:48:08;;;;;;;3.53;2.00;;;24.10;96.70;;;;;;4968811;28;20074;-79
2022/06/21 02:50:40;;;;;;;3.75;1.92;;;24.00;96.70;;;;;;4948540;28;20059;-79
2022/06/21 02:53:15;;;;;;;4.15;1.83;;;23.90;96.70;;;;;;4968864;28;20766;-79
2022/06/21 02:55:47;;;;;;;4.00;1.52;;;24.10;96.70;;;;;;4970432;28;20051;-79
2022/06/21 02:58:24;;;;;;;5.53;2.25;;;24.10;96.70;;;;;;4951349;28;20055;-79
2022/06/21 03:00:53;;;;;;;5.75;1.98;;;24.00;96.70;;;;;;4973736;28;20066;-79
2022/06/21 03:03:24;;;;;;;4.13;1.95;;;23.90;96.70;;;;;;4954802;28;20051;-79
2022/06/21 03:05:57;;;;;;;3.03;1.85;;;23.80;96.70;;;;;;4966320;28;20580;-79
2022/06/21 03:08:27;;;;;;;3.28;2.20;;;23.80;96.70;;;;;;4964582;28;20519;-79
2022/06/21 03:10:55;;;;;;;2.88;2.22;;;23.90;96.70;;;;;;4958468;28;20057;-79
2022/06/21 03:13:29;;;;;;;3.55;1.83;;;24.00;96.70;;;;;;4974038;28;20436;-80
2022/06/21 03:16:01;;;;;;;2.78;1.77;;;23.80;96.70;;;;;;4970036;28;20092;-79
2022/06/21 03:18:35;;;;;;;3.65;2.10;;;23.80;96.70;;;;;;4977946;28;20053;-80
2022/06/21 03:21:05;;;;;;;3.58;1.90;;;23.70;96.70;;;;;;4967015;28;20051;-80
2022/06/21 03:23:34;;;;;;;4.57;1.80;;;23.70;96.70;;;;;;4962990;28;20513;-79
2022/06/21 03:26:04;;;;;;;2.25;2.05;;;23.70;96.70;;;;;;4966878;28;20547;-79
2022/06/21 03:28:36;;;;;;;3.70;2.10;;;23.80;96.70;;;;;;4967792;28;20828;-79
2022/06/21 03:31:08;;;;;;;4.55;2.08;;;23.80;96.70;;;;;;4966602;28;20042;-79
2022/06/21 03:33:39;;;;;;;2.25;1.80;;;23.90;96.70;;;;;;4953677;28;20061;-79
2022/06/21 03:36:10;;;;;;;2.35;1.90;;;23.70;96.70;;;;;;4963487;28;20125;-79
2022/06/21 03:38:42;;;;;;;3.20;1.70;;;23.50;96.70;;;;;;4969174;28;20161;-79
2022/06/21 03:44:05;;;;;;;2.03;1.73;;;23.70;96.70;;;;;;4970626;28;20041;-79
2022/06/21 03:46:41;;;;;;;2.45;1.60;;;23.70;96.70;;;;;;4969533;28;20073;-79
2022/06/21 03:49:19;;;;;;;3.50;1.95;;;23.70;96.70;;;;;;4969062;28;20047;-79
2022/06/21 03:51:49;;;;;;;2.25;1.90;;;23.60;96.70;;;;;;4954547;28;20050;-79
2022/06/21 03:54:24;;;;;;;7.10;2.17;;;23.50;96.70;;;;;;4961538;28;20506;-79
2022/06/21 03:56:57;;;;;;;1.92;1.60;;;23.40;96.70;;;;;;4965459;28;20485;-79
2022/06/21 03:59:33;;;;;;;2.03;1.65;;;23.50;96.70;;;;;;4969843;28;20042;-79
2022/06/21 04:02:06;;;;;;;1.58;1.48;;;23.60;96.70;;;;;;4966633;28;20047;-80
2022/06/21 04:04:39;;;;;;;2.85;1.70;;;23.60;96.70;;;;;;4967599;28;20049;-79
2022/06/21 04:07:15;;;;;;;5.90;1.70;;;23.60;96.70;;;;;;4969741;28;20563;-78
2022/06/21 04:09:49;;;;;;;4.10;1.50;;;23.50;96.70;;;;;;4954524;28;20054;-79
2022/06/21 04:12:24;;;;;;;4.65;1.35;;;23.40;96.70;;;;;;4967670;28;20146;-79
2022/06/21 04:15:02;;;;;;;3.17;1.60;;;23.40;96.70;;;;;;4974150;28;20046;-80
2022/06/21 04:17:36;;;;;;;2.40;1.30;;;23.40;96.70;;;;;;4968181;28;20051;-79
2022/06/21 04:20:13;;;;;;;2.13;1.63;;;23.30;96.70;;;;;;4954662;28;20046;-79
2022/06/21 04:22:46;;;;;;;3.22;2.10;;;23.30;96.70;;;;;;4970105;28;20043;-78
2022/06/21 04:25:27;;;;;;;2.75;1.70;;;23.40;96.70;;;;;;4970758;28;20047;-79
2022/06/21 04:28:02;;;;;;;2.67;1.85;;;23.30;96.70;;;;;;4942812;29;20583;-79
2022/06/21 04:30:38;;;;;;;1.90;1.60;;;23.30;96.70;;;;;;4951810;28;20047;-79
2022/06/21 04:33:12;;;;;;;12.05;2.20;;;23.30;96.70;;;;;;4961984;28;20050;-82
2022/06/21 04:35:47;;;;;;;4.43;1.85;;;23.20;96.70;;;;;;4948128;28;20394;-80
2022/06/21 04:38:22;;;;;;;4.53;2.30;;;23.30;96.70;;;;;;4948136;28;20134;-80
2022/06/21 04:40:56;;;;;;;5.55;2.40;;;23.30;96.70;;;;;;4947929;28;20493;-79
2022/06/21 04:43:30;;;;;;;6.05;2.25;;;23.30;96.70;;;;;;4949788;28;20047;-79
2022/06/21 04:46:04;;;;;;;4.93;2.22;;;23.30;96.70;;;;;;4951423;28;20079;-79
2022/06/21 04:48:38;;;;;;;7.07;2.80;;;23.30;96.70;;;;;;4953709;28;20051;-78
2022/06/21 04:51:11;;;;;;;2.75;2.28;;;23.30;96.70;;;;;;4952089;28;20049;-79
2022/06/21 04:53:47;;;;;;;6.63;2.97;;;23.40;96.70;;;;;;4936309;28;20058;-79
2022/06/21 04:56:26;;;;;;;4.70;2.72;;;23.40;96.70;;;;;;4947373;29;20437;-79
2022/06/21 04:58:56;;;;;;;4.78;2.70;;;23.50;96.70;;;;;;4943412;28;20090;-80
2022/06/21 05:01:37;;;;;;;3.70;2.50;;;23.60;96.70;;;;;;4950867;28;20043;-79
2022/06/21 05:04:12;;;;;;;3.95;2.92;;;23.50;96.70;;;;;;4946352;28;20054;-79
2022/06/21 05:06:42;;;;;;;5.72;3.05;;;23.60;96.70;;;;;;4950961;28;20047;-80
2022/06/21 05:09:13;;;;;;;6.32;2.92;;;23.50;96.70;;;;;;4962957;28;20098;-79
2022/06/21 05:11:42;;;;;;;7.85;3.60;;;23.50;96.70;;;;;;4957259;28;20055;-78
2022/06/21 05:14:19;;;;;;;6.72;3.65;;;23.60;96.70;;;;;;4947854;28;20606;-77
2022/06/21 05:16:50;;;;;;;6.25;3.50;;;23.60;96.70;;;;;;4950040;28;20106;-77
2022/06/21 05:19:24;;;;;;;3.97;2.63;;;23.70;96.70;;;;;;4949307;28;20362;-78
2022/06/21 05:21:58;;;;;;;3.90;2.97;;;23.90;96.70;;;;;;4949508;28;20564;-80
2022/06/21 05:24:27;;;;;;;6.43;2.58;;;23.90;96.70;;;;;;4949795;28;20142;-80
2022/06/21 05:27:03;;;;;;;5.35;2.47;;;23.90;96.70;;;;;;4961258;28;20058;-78
2022/06/21 05:29:39;;;;;;;5.30;2.53;;;23.90;96.70;;;;;;4954623;28;20145;-77
2022/06/21 05:32:16;;;;;;;4.78;2.88;;;24.00;96.70;;;;;;4963464;28;20054;-77
2022/06/21 05:34:48;;;;;;;4.55;2.50;;;24.00;96.70;;;;;;4968735;28;20133;-77
2022/06/21 05:37:26;;;;;;;4.72;2.50;;;24.00;96.70;;;;;;4970770;28;20054;-79
2022/06/21 05:39:57;;;;;;;3.58;2.80;;;24.10;96.70;;;;;;4966350;28;20097;-78
2022/06/21 05:42:31;;;;;;;5.68;2.60;;;24.20;96.70;;;;;;4965379;28;20053;-74
2022/06/21 05:45:07;;;;;;;5.60;2.45;;;24.30;96.70;;;;;;4966715;28;20043;-75
2022/06/21 05:47:41;;;;;;;5.45;2.60;;;24.30;96.70;;;;;;4971416;28;20470;-77
2022/06/21 05:50:16;;;;;;;3.80;2.40;;;24.40;96.70;;;;;;4965777;28;20413;-77
2022/06/21 05:52:48;;;;;;;3.60;2.90;;;24.30;96.70;;;;;;4968445;28;20043;-77
2022/06/21 05:55:19;;;;;;;2.58;2.38;;;24.30;96.70;;;;;;4973505;28;20054;-77
2022/06/21 05:57:51;;;;;;;4.80;2.65;;;24.40;96.70;;;;;;4965273;28;20053;-78
2022/06/21 06:00:27;;;;;;;2.80;2.30;;;24.20;96.70;;;;;;4950671;28;20050;-75
2022/06/21 06:03:02;;;;;;;3.53;2.15;;;24.20;96.70;;;;;;4970108;28;20134;-77
2022/06/21 06:05:35;;;;;;;4.38;2.17;;;24.30;96.70;;;;;;4955591;28;20046;-75
2022/06/21 06:08:08;;;;;;;4.43;2.42;;;24.40;96.70;;;;;;4958411;28;20509;-75
2022/06/21 06:10:38;;;;;;;2.45;2.10;;;24.50;96.70;;;;;;4956241;28;20042;-75
2022/06/21 06:13:12;;;;;;;4.18;2.63;;;24.70;96.70;;;;;;4966661;28;20047;-75
2022/06/21 06:15:45;;;;;;;4.63;2.50;;;24.80;96.70;;;;;;4968126;28;20053;-75
2022/06/21 06:18:19;;;;;;;6.78;2.95;;;24.80;96.70;;;;;;4963935;28;20047;-77
2022/06/21 06:20:52;;;;;;;3.38;2.20;;;24.80;96.70;;;;;;4937562;28;20049;-77
2022/06/21 06:23:26;;;;;;;4.63;2.38;;;24.90;96.70;;;;;;4967226;28;20081;-77
2022/06/21 06:25:59;;;;;;;5.40;2.28;;;24.90;96.70;;;;;;4967283;28;20142;-77
2022/06/21 06:28:32;;;;;;;3.65;1.73;;;25.00;96.70;;;;;;4951701;28;20046;-77
2022/06/21 06:31:20;;;;;;;3.53;2.05;;;25.10;96.70;;;;;;4961535;28;20059;-77
2022/06/21 06:33:53;;;;;;;2.80;2.17;;;25.20;96.70;;;;;;4933558;28;20062;-77
2022/06/21 06:36:25;;;;;;;4.70;2.42;;;25.20;96.70;;;;;;4945729;29;20452;-77
2022/06/21 06:38:53;;;;;;;5.32;2.50;;;25.30;96.70;;;;;;4941867;29;20109;-77
2022/06/21 06:41:27;;;;;;;2.53;2.22;;;25.30;96.70;;;;;;4944587;29;20126;-77
2022/06/21 06:43:59;;;;;;;4.43;2.17;;;25.30;96.70;;;;;;4961607;28;20472;-77
2022/06/21 06:46:30;;;;;;;5.28;2.30;;;25.30;96.70;;;;;;4964607;28;20051;-77
2022/06/21 06:49:29;;;;;;;2.95;1.95;;;25.40;96.70;;;;;;4952179;28;20043;-77
2022/06/21 06:52:02;;;;;;;3.20;2.00;;;25.50;96.70;;;;;;4961296;28;20047;-77
2022/06/21 06:54:38;;;;;;;4.53;2.25;;;25.60;96.70;;;;;;4948701;28;20126;-77
2022/06/21 06:57:20;;;;;;;4.10;2.28;;;25.70;96.70;;;;;;4961332;28;20059;-77
2022/06/21 06:59:49;;;;;;;3.08;2.40;;;25.70;96.70;;;;;;4963420;28;20050;-77
2022/06/21 07:02:22;;;;;;;4.53;2.22;;;25.70;96.70;;;;;;4965291;28;20057;-79
2022/06/21 07:05:02;;;;;;;3.78;2.30;;;25.80;96.70;;;;;;4967288;28;20057;-79
2022/06/21 07:07:41;;;;;;;3.63;2.20;;;25.90;96.70;;;;;;4945581;28;20079;-80
2022/06/21 07:10:14;;;;;;;4.25;2.50;;;25.90;96.70;;;;;;4963076;28;20113;-79
2022/06/21 07:12:43;;;;;;;5.22;1.85;;;26.00;96.70;;;;;;4949890;28;20125;-77
2022/06/21 07:15:13;;;;;;;6.35;2.20;;;26.20;96.70;;;;;;4953864;28;20042;-77
2022/06/21 07:17:49;;;;;;;4.10;2.00;;;26.20;96.70;;;;;;4950392;28;20056;-77
2022/06/21 07:20:22;;;;;;;3.83;2.08;;;26.20;96.70;;;;;;4933261;28;20051;-77
2022/06/21 07:22:52;;;;;;;4.35;2.22;;;26.40;96.70;;;;;;4970844;28;20047;-76
2022/06/21 07:25:26;;;;;;;3.97;1.92;;;26.40;96.70;;;;;;4952076;28;20098;-76
2022/06/21 07:27:57;;;;;;;4.75;2.03;;;26.40;96.70;;;;;;4955483;28;20043;-77
2022/06/21 07:30:31;;;;;;;4.78;2.47;;;26.50;96.70;;;;;;4950747;28;20047;-77
2022/06/21 07:33:04;;;;;;;3.67;2.53;;;26.50;96.70;;;;;;4952783;28;20046;-77
2022/06/21 07:35:36;;;;;;;4.07;2.05;;;26.50;96.70;;;;;;4949203;28;20445;-76
2022/06/21 07:38:09;;;;;;;6.80;2.53;;;26.50;96.70;;;;;;4963436;28;20084;-76
2022/06/21 07:40:42;;;;;;;3.47;2.33;;;26.60;96.70;;;;;;4964654;28;20407;-75
2022/06/21 07:43:16;;;;;;;4.30;2.50;;;26.70;96.70;;;;;;4963382;28;20069;-75
2022/06/21 07:45:50;;;;;;;6.93;2.50;;;26.70;96.70;;;;;;4969306;28;20051;-75
2022/06/21 07:48:22;;;;;;;3.70;2.25;;;26.70;96.70;;;;;;4951771;28;20050;-75
2022/06/21 07:50:55;;;;;;;3.92;2.00;;;26.70;96.70;;;;;;4967189;28;20042;-75
2022/06/21 07:53:28;;;;;;;4.05;2.40;;;26.70;96.70;;;;;;4947446;29;20560;-75
2022/06/21 07:56:02;;;;;;;3.78;2.28;;;26.80;96.70;;;;;;4971256;28;20043;-75
2022/06/21 07:58:35;;;;;;;5.05;2.30;;;26.90;96.70;;;;;;4948434;28;20054;-75
2022/06/21 08:07:16;;;;;;;3.65;2.50;;;27.20;96.70;;;;;;4912854;29;20593;-75
2022/06/21 08:09:48;;;;;;;3.00;2.08;;;27.20;96.70;;;;;;4909343;29;20637;-78
2022/06/21 08:12:18;;;;;;;4.93;2.50;;;27.30;96.70;;;;;;4935391;28;20055;-78
2022/06/21 08:14:47;;;;;;;4.72;2.50;;;27.30;96.70;;;;;;4951417;28;21061;-78
2022/06/21 08:17:24;;;;;;;7.07;2.70;;;27.40;96.70;;;;;;4950173;28;20531;-80
2022/06/21 08:19:57;;;;;;;5.47;2.60;;;27.40;96.70;;;;;;4953764;28;20089;-80
2022/06/21 08:22:32;;;;;;;4.38;2.58;;;27.60;96.70;;;;;;4946952;28;20541;-80
2022/06/21 08:25:07;;;;;;;6.20;3.03;;;27.60;96.70;;;;;;4953646;28;20043;-79
2022/06/21 08:27:42;;;;;;;4.55;2.47;;;27.60;96.70;;;;;;4965886;28;20058;-79
2022/06/21 08:30:16;;;;;;;6.30;2.55;;;27.80;96.70;;;;;;4951956;28;20054;-79
2022/06/21 08:32:51;;;;;;;3.33;2.35;;;27.80;96.70;;;;;;4967355;28;20050;-79
2022/06/21 08:35:27;;;;;;;5.72;2.60;;;27.80;96.70;;;;;;4967038;28;20459;-79
2022/06/21 08:38:02;;;;;;;6.30;2.75;;;28.00;96.70;;;;;;4966236;28;20055;-79
2022/06/21 08:41:51;;;;;;;4.28;2.47;;;28.10;96.70;;;;;;4966591;28;20038;-77
2022/06/21 08:44:42;;;;;;;4.35;2.35;;;28.10;96.70;;;;;;4966671;28;20501;-76
2022/06/21 08:47:46;;;;;;;8.05;2.95;;;28.10;96.70;;;;;;4969849;28;20054;-77
2022/06/21 08:50:58;;;;;;;4.95;2.30;;;28.10;96.70;;;;;;4950055;28;20050;-76
2022/06/21 08:53:38;;;;;;;;;;;28.20;96.70;;;;;;4925798;29;20074;-78
2022/06/21 08:56:13;;;;;;;4.88;2.60;;;28.30;96.70;;;;;;4960416;28;20448;-78
2022/06/21 08:58:57;;;;;;;5.25;2.42;;;28.30;96.70;;;;;;4972566;28;20149;-77
2022/06/21 09:01:33;;;;;;;5.97;2.75;;;28.30;96.70;;;;;;4966550;28;20046;-77
2022/06/21 09:04:18;;;;;;;5.95;2.85;;;28.30;96.70;;;;;;4948966;28;20051;-76
2022/06/21 09:07:22;;;;;;;4.75;2.60;;;28.30;96.70;;;;;;4968213;28;20086;-77
2022/06/21 09:10:06;;;;;;;4.57;2.50;;;28.60;96.70;;;;;;4948941;28;20113;-77
2022/06/21 09:12:48;;;;;;;4.47;2.45;;;28.70;96.70;;;;;;4949021;28;20053;-79
2022/06/21 09:15:30;;;;;;;2.97;2.47;;;28.60;96.70;;;;;;4967813;28;20158;-75
2022/06/21 09:18:07;;;;;;;4.00;2.22;;;28.70;96.70;;;;;;4970836;28;20046;-76
2022/06/21 09:20:44;;;;;;;4.65;2.45;;;28.80;96.70;;;;;;4960176;28;20130;-75
2022/06/21 09:23:34;;;;;;;4.63;2.33;;;28.90;96.70;;;;;;4969660;28;20047;-75
2022/06/21 09:26:09;;;;;;;4.13;2.80;;;29.00;96.70;;;;;;4949884;28;20416;-77
2022/06/21 09:28:48;;;;;;;3.00;2.63;;;29.10;96.70;;;;;;4948211;28;20054;-77
2022/06/21 09:31:23;;;;;;;4.13;2.47;;;29.20;96.70;;;;;;4963204;28;20058;-77
2022/06/21 09:33:57;;;;;;;5.03;2.53;;;29.30;96.70;;;;;;4968850;28;20860;-77
2022/06/21 09:36:33;;;;;;;3.75;2.45;;;29.30;96.70;;;;;;4950560;28;20043;-77
2022/06/21 09:39:13;;;;;;;5.95;2.83;;;29.30;96.70;;;;;;4945462;28;20057;-78
2022/06/21 09:41:52;;;;;;;6.20;2.50;;;29.20;96.70;;;;;;4971096;28;20171;-78
2022/06/21 09:44:30;;;;;;;5.30;2.72;;;29.20;96.70;;;;;;4950252;28;20074;-77
2022/06/21 09:47:06;;;;;;;7.07;2.42;;;29.30;96.70;;;;;;4969639;28;20046;-77
2022/06/21 09:49:39;;;;;;;;;;;29.30;96.70;;;;;;4966112;28;20059;-77
2022/06/21 09:52:20;;;;;;;7.45;2.80;;;29.40;96.70;;;;;;4947991;28;20443;-77
2022/06/21 09:54:58;;;;;;;4.70;2.78;;;29.50;96.70;;;;;;4946368;28;20082;-77
2022/06/21 09:57:36;;;;;;;4.75;2.58;;;29.50;96.70;;;;;;4969308;28;20039;-77
2022/06/21 10:00:11;;;;;;;4.32;2.90;;;29.60;96.70;;;;;;4954217;28;20884;-77
2022/06/21 10:02:55;;;;;;;3.80;2.72;;;29.50;96.70;;;;;;4967926;28;20501;-77
2022/06/21 10:05:31;;;;;;;5.53;2.95;;;29.50;96.70;;;;;;4966153;28;20132;-77
2022/06/21 10:08:14;;;;;;;6.00;2.85;;;29.50;96.70;;;;;;4966680;28;20054;-78
2022/06/21 10:11:01;;;;;;;5.10;2.80;;;29.60;96.70;;;;;;4970529;28;20435;-77
2022/06/21 10:13:52;;;;;;;3.83;2.83;;;29.80;96.70;;;;;;4967167;28;20625;-77
2022/06/21 10:16:45;;;;;;;3.40;2.50;;;29.80;96.70;;;;;;4965100;28;20047;-77
2022/06/21 10:19:23;;;;;;;4.45;2.60;;;30.00;96.70;;;;;;4971252;28;20078;-76
2022/06/21 10:22:15;;;;;;;4.32;2.28;;;30.00;96.70;;;;;;4968930;28;20698;-75
2022/06/21 10:25:27;;;;;;;4.93;2.42;;;30.20;96.70;;;;;;4968506;28;20046;-77
2022/06/21 10:28:37;;;;;;;5.22;2.72;;;30.30;96.70;;;;;;4955109;28;20062;-77
2022/06/21 10:31:26;;;;;;;3.55;2.28;;;30.30;96.70;;;;;;4929477;28;20078;-77
2022/06/21 10:34:30;;;;;;;3.75;2.60;;;30.50;96.70;;;;;;4970857;28;20058;-77
2022/06/21 10:37:15;;;;;;;3.35;2.88;;;30.70;96.70;;;;;;4946271;28;20476;-77
2022/06/21 10:40:11;;;;;;;5.10;3.00;;;30.80;96.70;;;;;;4965245;28;20055;-77
2022/06/21 10:43:13;;;;;;;4.72;2.92;;;31.00;96.70;;;;;;4962634;28;20055;-81
2022/06/21 10:45:49;;;;;;;5.13;2.50;;;31.00;96.70;;;;;;4955112;28;20905;-80
2022/06/21 10:48:35;;;;;;;;;;;31.00;96.70;;;;;;4954611;28;20515;-80
2022/06/21 10:51:11;;;;;;;3.33;2.95;;;31.10;96.70;;;;;;4963011;28;19962;-80
2022/06/21 10:53:58;;;;;;;4.22;2.65;;;31.20;96.70;;;;;;4961862;28;20412;-80
2022/06/21 11:03:09;;;;;;;5.15;2.92;;;31.30;96.70;;;;;;4967080;28;20051;-78
2022/06/21 11:05:44;;;;;;;3.35;2.60;;;31.60;96.70;;;;;;4947974;28;20074;-79
2022/06/21 11:08:28;;;;;;;3.13;2.50;;;31.70;96.70;;;;;;4971932;28;20063;-79
2022/06/21 11:11:02;;;;;;;3.20;2.53;;;31.70;96.70;;;;;;4961624;28;20051;-78
2022/06/21 11:13:36;;;;;;;3.35;2.80;;;31.80;96.70;;;;;;4959999;28;20421;-78
2022/06/21 11:16:12;;;;;;;3.33;2.63;;;32.00;96.70;;;;;;4966911;28;20038;-79
2022/06/21 11:18:51;;;;;;;3.55;2.70;;;32.00;96.70;;;;;;4950229;28;20054;-78
2022/06/21 11:21:31;;;;;;;5.97;3.10;;;32.10;96.70;;;;;;4951430;28;20493;-78
2022/06/21 11:24:13;;;;;;;6.90;2.58;;;32.20;96.70;;;;;;4966563;28;20047;-79
2022/06/21 11:26:53;;;;;;;2.78;2.50;;;32.30;96.70;;;;;;4960967;28;20063;-79
2022/06/21 11:29:33;;;;;;;3.08;2.50;;;32.40;96.70;;;;;;4946458;28;20071;-79
2022/06/21 11:32:12;;;;;;;5.65;2.40;;;32.40;96.70;;;;;;4933454;28;20433;-79
2022/06/21 11:34:53;;;;;;;2.88;2.38;;;32.30;96.70;;;;;;4967016;28;20043;-79
2022/06/21 11:37:38;;;;;;;3.15;2.75;;;32.30;96.70;;;;;;4950204;28;20062;-79
2022/06/21 11:40:33;;;;;;;4.10;2.70;;;32.40;96.70;;;;;;4967303;28;20051;-79
2022/06/21 11:43:06;;;;;;;4.60;3.00;;;32.40;96.70;;;;;;4952311;28;20047;-79
2022/06/21 11:45:47;;;;;;;3.17;2.65;;;32.40;96.70;;;;;;4962755;28;20054;-78
2022/06/21 11:48:48;;;;;;;6.63;2.85;;;32.50;96.70;;;;;;4948249;28;20054;-79
2022/06/21 11:51:41;;;;;;;3.35;2.40;;;32.70;96.70;;;;;;4952686;28;20071;-79
2022/06/21 11:54:16;;;;;;;4.18;2.90;;;32.70;96.70;;;;;;4951556;28;20094;-79
2022/06/21 11:57:11;;;;;;;5.95;2.90;;;32.80;96.70;;;;;;4944329;28;20517;-79
2022/06/21 11:59:46;;;;;;;4.25;3.10;;;32.90;96.70;;;;;;4965898;28;20057;-79
2022/06/21 12:02:24;;;;;;;7.13;2.97;;;32.90;96.70;;;;;;4950367;28;20430;-79
2022/06/21 12:04:59;;;;;;;4.72;2.80;;;33.00;96.70;;;;;;4954387;28;20151;-81
2022/06/21 12:07:35;;;;;;;3.22;2.88;;;33.20;96.70;;;;;;4949580;28;20470;-82
2022/06/21 12:10:11;;;;;;;4.07;2.90;;;33.20;96.70;;;;;;4969430;28;20464;-80
2022/06/21 12:12:59;;;;;;;4.70;3.10;;;33.20;96.70;;;;;;4952605;28;20051;-81
2022/06/21 12:15:50;;;;;;;5.38;2.83;;;33.30;96.70;;;;;;4936258;28;20096;-80
2022/06/21 12:18:22;;;;;;;4.60;3.03;;;33.50;96.70;;;;;;4962716;28;20051;-81
2022/06/21 12:20:53;;;;;;;6.40;3.03;;;33.60;96.70;;;;;;4953636;28;20054;-80
2022/06/21 12:23:27;;;;;;;7.88;3.13;;;33.70;96.70;;;;;;4947472;28;20057;-80
2022/06/21 12:25:58;;;;;;;6.20;3.13;;;33.70;96.70;;;;;;4945380;28;20061;-80
2022/06/21 12:28:31;;;;;;;4.70;2.70;;;33.80;95.50;;;;;;4965919;28;20043;-79
2022/06/21 12:31:14;;;;;;;5.45;2.83;;;33.90;95.40;;;;;;4949307;28;20448;-80
2022/06/21 12:33:44;;;;;;;7.50;3.03;;;34.10;95.40;;;;;;4950643;28;20073;-79
2022/06/21 12:36:28;;;;;;;5.90;3.30;;;34.10;95.20;;;;;;4972453;28;20039;-79
2022/06/21 12:39:01;;;;;;;6.68;3.63;;;34.00;96.10;;;;;;4974565;28;20046;-79
2022/06/21 12:41:40;;;;;;;6.03;2.53;;;34.00;95.80;;;;;;4944019;28;21036;-81
2022/06/21 12:44:23;;;;;;;3.85;2.75;;;34.10;91.40;;;;;;4962156;28;20053;-79
2022/06/21 12:47:02;;;;;;;4.25;2.58;;;34.10;90.20;;;;;;4969161;28;20046;-79
2022/06/21 12:50:09;;;;;;;3.45;2.83;;;34.30;89.70;;;;;;4972743;28;20065;-79
2022/06/21 12:52:43;;;;;;;5.50;3.40;;;34.30;91.60;;;;;;4943518;28;20063;-79
2022/06/21 12:55:21;;;;;;;4.88;3.33;;;34.30;95.20;;;;;;4950542;28;20051;-79
2022/06/21 12:58:06;;;;;;;5.95;3.67;;;34.10;96.70;;;;;;4966785;28;20467;-79
2022/06/21 13:00:46;;;;;;;5.28;3.53;;;34.00;96.70;;;;;;4949151;28;20596;-80
2022/06/21 13:03:46;;;;;;;6.47;3.30;;;34.20;96.70;;;;;;4966685;28;20462;-81
2022/06/21 13:06:46;;;;;;;5.70;3.80;;;34.30;96.70;;;;;;4962760;28;20046;-81
2022/06/21 13:09:32;;;;;;;6.60;3.25;;;34.30;96.70;;;;;;4963916;28;20515;-79
2022/06/21 13:12:18;;;;;;;6.20;3.47;;;34.30;96.70;;;;;;4963735;28;20047;-80
2022/06/21 13:15:07;;;;;;;5.00;3.78;;;34.20;96.70;;;;;;4971137;28;20392;-80
2022/06/21 13:18:17;;;;;;;7.05;3.13;;;34.40;96.70;;;;;;4972868;28;20117;-80
2022/06/21 13:20:58;;;;;;;3.58;3.28;;;34.30;96.70;;;;;;4948697;28;20059;-80
2022/06/21 13:23:34;;;;;;;5.43;3.10;;;34.60;96.70;;;;;;4952080;28;20078;-81
2022/06/21 13:26:10;;;;;;;8.80;3.83;;;34.40;96.70;;;;;;4964571;28;20046;-80
2022/06/21 13:29:04;;;;;;;4.53;2.97;;;34.50;96.70;;;;;;4969753;28;20054;-80
2022/06/21 13:31:40;;;;;;;6.40;2.75;;;34.60;96.70;;;;;;4971699;28;20054;-79
2022/06/21 13:34:26;;;;;;;4.05;2.78;;;34.70;96.70;;;;;;4950790;28;20062;-80
2022/06/21 13:36:57;;;;;;;;;;;34.70;96.70;;;;;;4967950;28;20046;-80
2022/06/21 13:39:34;;;;;;;6.50;2.92;;;34.70;95.80;;;;;;4968814;28;19926;-79
2022/06/21 13:45:05;;;;;;;5.57;3.00;;;35.10;95.30;;;;;;4967931;28;20133;-80
2022/06/21 13:47:43;;;;;;;5.38;3.03;;;34.90;95.80;;;;;;4974021;28;20085;-80
2022/06/21 13:50:20;;;;;;;5.32;3.03;;;34.90;94.90;;;;;;4965446;28;20057;-80
2022/06/21 13:52:56;;;;;;;5.05;2.88;;;35.20;94.60;;;;;;4961886;28;20055;-80
2022/06/21 13:55:35;;;;;;;3.33;2.90;;;35.20;94.50;;;;;;4972896;28;20092;-80